sensor_id;sensor_type;location;lat;lon;timestamp;P1;durP1;ratioP1;P2;durP2;ratioP2
74259;SDS011;62630;55.874;37.516;2023-01-30T00:00:53;4.78;;;3.20;;
74259;SDS011;62630;55.874;37.516;2023-01-30T00:03:23;5.00;;;2.65;;
74259;SDS011;62630;55.874;37.516;2023-01-30T00:05:50;4.60;;;2.97;;
74259;SDS011;62630;55.874;37.516;2023-01-30T00:08:15;4.72;;;2.70;;
74259;SDS011;62630;55.874;37.516;2023-01-30T00:10:41;5.75;;;3.30;;
74259;SDS011;62630;55.874;37.516;2023-01-30T00:13:11;5.22;;;3.00;;
74259;SDS011;62630;55.874;37.516;2023-01-30T00:15:38;5.65;;;2.72;;
74259;SDS011;62630;55.874;37.516;2023-01-30T00:18:04;5.55;;;3.13;;
74259;SDS011;62630;55.874;37.516;2023-01-30T00:20:30;4.32;;;2.80;;
74259;SDS011;62630;55.874;37.516;2023-01-30T00:22:56;6.57;;;3.35;;
74259;SDS011;62630;55.874;37.516;2023-01-30T00:25:23;4.47;;;2.58;;
74259;SDS011;62630;55.874;37.516;2023-01-30T00:27:49;5.82;;;2.90;;
74259;SDS011;62630;55.874;37.516;2023-01-30T00:30:15;8.07;;;3.72;;
74259;SDS011;62630;55.874;37.516;2023-01-30T00:32:40;6.32;;;3.17;;
74259;SDS011;62630;55.874;37.516;2023-01-30T00:35:06;5.65;;;3.00;;
74259;SDS011;62630;55.874;37.516;2023-01-30T00:37:32;4.40;;;2.72;;
74259;SDS011;62630;55.874;37.516;2023-01-30T00:39:58;6.88;;;3.33;;
74259;SDS011;62630;55.874;37.516;2023-01-30T00:42:24;5.63;;;3.42;;
74259;SDS011;62630;55.874;37.516;2023-01-30T00:48:27;6.38;;;3.28;;
74259;SDS011;62630;55.874;37.516;2023-01-30T00:50:53;6.47;;;3.33;;
74259;SDS011;62630;55.874;37.516;2023-01-30T00:53:18;5.93;;;3.00;;
74259;SDS011;62630;55.874;37.516;2023-01-30T00:55:44;6.13;;;3.00;;
74259;SDS011;62630;55.874;37.516;2023-01-30T00:58:15;7.20;;;3.25;;
74259;SDS011;62630;55.874;37.516;2023-01-30T01:00:41;7.43;;;3.30;;
74259;SDS011;62630;55.874;37.516;2023-01-30T01:03:07;7.00;;;3.65;;
74259;SDS011;62630;55.874;37.516;2023-01-30T01:05:32;7.07;;;3.63;;
74259;SDS011;62630;55.874;37.516;2023-01-30T01:07:58;6.82;;;3.92;;
74259;SDS011;62630;55.874;37.516;2023-01-30T01:12:59;7.15;;;3.70;;
74259;SDS011;62630;55.874;37.516;2023-01-30T01:15:25;7.82;;;3.40;;
74259;SDS011;62630;55.874;37.516;2023-01-30T01:17:51;5.82;;;3.40;;
74259;SDS011;62630;55.874;37.516;2023-01-30T01:20:18;8.13;;;3.80;;
74259;SDS011;62630;55.874;37.516;2023-01-30T01:22:44;8.13;;;4.05;;
74259;SDS011;62630;55.874;37.516;2023-01-30T01:25:10;8.57;;;3.70;;
74259;SDS011;62630;55.874;37.516;2023-01-30T01:27:36;5.75;;;3.53;;
74259;SDS011;62630;55.874;37.516;2023-01-30T01:30:02;7.97;;;3.85;;
74259;SDS011;62630;55.874;37.516;2023-01-30T01:32:29;7.95;;;3.72;;
74259;SDS011;62630;55.874;37.516;2023-01-30T01:35:00;7.25;;;3.38;;
74259;SDS011;62630;55.874;37.516;2023-01-30T01:37:26;6.65;;;3.70;;
74259;SDS011;62630;55.874;37.516;2023-01-30T01:45:04;6.13;;;3.72;;
74259;SDS011;62630;55.874;37.516;2023-01-30T01:47:44;9.32;;;4.35;;
74259;SDS011;62630;55.874;37.516;2023-01-30T01:50:20;7.50;;;3.63;;
74259;SDS011;62630;55.874;37.516;2023-01-30T01:53:05;7.28;;;3.92;;
74259;SDS011;62630;55.874;37.516;2023-01-30T01:55:34;8.05;;;4.68;;
74259;SDS011;62630;55.874;37.516;2023-01-30T01:58:04;6.88;;;3.78;;
74259;SDS011;62630;55.874;37.516;2023-01-30T02:00:35;8.57;;;4.43;;
74259;SDS011;62630;55.874;37.516;2023-01-30T02:03:05;8.15;;;4.07;;
74259;SDS011;62630;55.874;37.516;2023-01-30T02:08:21;10.95;;;4.78;;
74259;SDS011;62630;55.874;37.516;2023-01-30T02:10:57;7.28;;;4.30;;
74259;SDS011;62630;55.874;37.516;2023-01-30T02:13:28;7.45;;;4.25;;
74259;SDS011;62630;55.874;37.516;2023-01-30T02:15:56;6.85;;;3.83;;
74259;SDS011;62630;55.874;37.516;2023-01-30T02:18:24;6.97;;;3.63;;
74259;SDS011;62630;55.874;37.516;2023-01-30T02:21:16;9.05;;;3.85;;
74259;SDS011;62630;55.874;37.516;2023-01-30T02:26:24;6.60;;;3.75;;
74259;SDS011;62630;55.874;37.516;2023-01-30T02:45:53;7.32;;;3.72;;
74259;SDS011;62630;55.874;37.516;2023-01-30T02:51:15;6.78;;;3.92;;
74259;SDS011;62630;55.874;37.516;2023-01-30T02:53:45;6.78;;;4.20;;
74259;SDS011;62630;55.874;37.516;2023-01-30T02:56:15;8.90;;;4.00;;
74259;SDS011;62630;55.874;37.516;2023-01-30T02:58:41;11.15;;;4.38;;
74259;SDS011;62630;55.874;37.516;2023-01-30T03:04:00;7.43;;;4.20;;
74259;SDS011;62630;55.874;37.516;2023-01-30T03:06:55;8.52;;;4.38;;
74259;SDS011;62630;55.874;37.516;2023-01-30T03:13:04;7.50;;;4.18;;
74259;SDS011;62630;55.874;37.516;2023-01-30T03:15:50;9.80;;;4.70;;
74259;SDS011;62630;55.874;37.516;2023-01-30T03:18:21;6.13;;;3.08;;
74259;SDS011;62630;55.874;37.516;2023-01-30T03:20:47;9.35;;;4.05;;
74259;SDS011;62630;55.874;37.516;2023-01-30T03:23:15;6.38;;;3.30;;
74259;SDS011;62630;55.874;37.516;2023-01-30T03:25:41;9.40;;;4.50;;
74259;SDS011;62630;55.874;37.516;2023-01-30T03:28:10;8.95;;;4.00;;
74259;SDS011;62630;55.874;37.516;2023-01-30T03:30:45;7.70;;;4.30;;
74259;SDS011;62630;55.874;37.516;2023-01-30T03:33:16;7.65;;;4.25;;
74259;SDS011;62630;55.874;37.516;2023-01-30T03:35:42;7.53;;;4.18;;
74259;SDS011;62630;55.874;37.516;2023-01-30T03:38:12;8.75;;;4.65;;
74259;SDS011;62630;55.874;37.516;2023-01-30T03:40:38;8.70;;;4.00;;
74259;SDS011;62630;55.874;37.516;2023-01-30T03:43:04;7.38;;;3.78;;
74259;SDS011;62630;55.874;37.516;2023-01-30T03:45:29;10.07;;;4.80;;
74259;SDS011;62630;55.874;37.516;2023-01-30T03:47:55;10.32;;;5.10;;
74259;SDS011;62630;55.874;37.516;2023-01-30T03:50:20;7.60;;;4.38;;
74259;SDS011;62630;55.874;37.516;2023-01-30T03:52:46;8.07;;;4.47;;
74259;SDS011;62630;55.874;37.516;2023-01-30T03:55:13;7.70;;;4.20;;
74259;SDS011;62630;55.874;37.516;2023-01-30T03:57:38;8.50;;;4.03;;
74259;SDS011;62630;55.874;37.516;2023-01-30T04:00:04;9.48;;;4.28;;
74259;SDS011;62630;55.874;37.516;2023-01-30T04:02:30;6.93;;;3.78;;
74259;SDS011;62630;55.874;37.516;2023-01-30T04:04:56;8.80;;;4.50;;
74259;SDS011;62630;55.874;37.516;2023-01-30T04:07:21;7.32;;;3.90;;
74259;SDS011;62630;55.874;37.516;2023-01-30T04:09:47;6.95;;;3.88;;
74259;SDS011;62630;55.874;37.516;2023-01-30T04:12:13;8.38;;;4.00;;
74259;SDS011;62630;55.874;37.516;2023-01-30T04:14:39;6.28;;;3.78;;
74259;SDS011;62630;55.874;37.516;2023-01-30T04:17:04;7.50;;;4.18;;
74259;SDS011;62630;55.874;37.516;2023-01-30T04:19:31;6.72;;;3.85;;
74259;SDS011;62630;55.874;37.516;2023-01-30T04:21:57;7.88;;;4.32;;
74259;SDS011;62630;55.874;37.516;2023-01-30T04:24:23;8.52;;;4.10;;
74259;SDS011;62630;55.874;37.516;2023-01-30T04:26:48;7.47;;;3.55;;
74259;SDS011;62630;55.874;37.516;2023-01-30T04:29:14;6.25;;;4.15;;
74259;SDS011;62630;55.874;37.516;2023-01-30T04:31:39;9.95;;;4.07;;
74259;SDS011;62630;55.874;37.516;2023-01-30T04:34:05;7.85;;;4.20;;
74259;SDS011;62630;55.874;37.516;2023-01-30T04:36:30;7.95;;;4.35;;
74259;SDS011;62630;55.874;37.516;2023-01-30T04:38:56;6.65;;;4.03;;
74259;SDS011;62630;55.874;37.516;2023-01-30T04:41:22;10.02;;;3.97;;
74259;SDS011;62630;55.874;37.516;2023-01-30T04:43:48;7.15;;;4.60;;
74259;SDS011;62630;55.874;37.516;2023-01-30T04:46:13;9.07;;;4.00;;
74259;SDS011;62630;55.874;37.516;2023-01-30T04:48:39;8.02;;;4.70;;
74259;SDS011;62630;55.874;37.516;2023-01-30T04:51:04;7.75;;;4.65;;
74259;SDS011;62630;55.874;37.516;2023-01-30T04:53:31;7.90;;;4.10;;
74259;SDS011;62630;55.874;37.516;2023-01-30T04:55:57;8.77;;;4.55;;
74259;SDS011;62630;55.874;37.516;2023-01-30T04:58:22;7.93;;;4.35;;
74259;SDS011;62630;55.874;37.516;2023-01-30T05:00:49;6.65;;;3.90;;
74259;SDS011;62630;55.874;37.516;2023-01-30T05:03:15;6.70;;;4.07;;
74259;SDS011;62630;55.874;37.516;2023-01-30T05:05:40;7.28;;;3.65;;
74259;SDS011;62630;55.874;37.516;2023-01-30T05:08:06;8.38;;;4.22;;
74259;SDS011;62630;55.874;37.516;2023-01-30T05:10:32;7.00;;;4.15;;
74259;SDS011;62630;55.874;37.516;2023-01-30T05:13:01;7.00;;;4.35;;
74259;SDS011;62630;55.874;37.516;2023-01-30T05:15:28;5.57;;;3.47;;
74259;SDS011;62630;55.874;37.516;2023-01-30T05:17:54;9.00;;;4.85;;
74259;SDS011;62630;55.874;37.516;2023-01-30T05:20:19;6.53;;;3.80;;
74259;SDS011;62630;55.874;37.516;2023-01-30T05:22:45;7.28;;;3.90;;
74259;SDS011;62630;55.874;37.516;2023-01-30T05:25:10;6.32;;;4.20;;
74259;SDS011;62630;55.874;37.516;2023-01-30T05:27:36;6.80;;;4.00;;
74259;SDS011;62630;55.874;37.516;2023-01-30T05:30:02;7.80;;;4.47;;
74259;SDS011;62630;55.874;37.516;2023-01-30T05:32:28;6.43;;;3.88;;
74259;SDS011;62630;55.874;37.516;2023-01-30T05:34:55;5.88;;;4.20;;
74259;SDS011;62630;55.874;37.516;2023-01-30T05:37:21;7.50;;;4.22;;
74259;SDS011;62630;55.874;37.516;2023-01-30T05:39:48;6.57;;;3.97;;
74259;SDS011;62630;55.874;37.516;2023-01-30T05:42:15;8.32;;;4.85;;
74259;SDS011;62630;55.874;37.516;2023-01-30T05:44:40;7.60;;;4.32;;
74259;SDS011;62630;55.874;37.516;2023-01-30T05:47:06;7.15;;;4.40;;
74259;SDS011;62630;55.874;37.516;2023-01-30T05:49:31;7.90;;;4.28;;
74259;SDS011;62630;55.874;37.516;2023-01-30T05:51:57;7.45;;;4.75;;
74259;SDS011;62630;55.874;37.516;2023-01-30T05:54:23;7.88;;;5.00;;
74259;SDS011;62630;55.874;37.516;2023-01-30T05:56:49;8.10;;;4.97;;
74259;SDS011;62630;55.874;37.516;2023-01-30T05:59:15;9.15;;;4.78;;
74259;SDS011;62630;55.874;37.516;2023-01-30T06:01:42;10.00;;;5.20;;
74259;SDS011;62630;55.874;37.516;2023-01-30T06:04:09;9.52;;;4.85;;
74259;SDS011;62630;55.874;37.516;2023-01-30T06:06:35;10.00;;;4.85;;
74259;SDS011;62630;55.874;37.516;2023-01-30T06:09:00;10.82;;;5.43;;
74259;SDS011;62630;55.874;37.516;2023-01-30T06:11:26;8.88;;;5.10;;
74259;SDS011;62630;55.874;37.516;2023-01-30T06:13:52;10.52;;;4.85;;
74259;SDS011;62630;55.874;37.516;2023-01-30T06:16:17;9.77;;;4.70;;
74259;SDS011;62630;55.874;37.516;2023-01-30T06:18:43;9.45;;;4.57;;
74259;SDS011;62630;55.874;37.516;2023-01-30T06:21:14;8.55;;;4.53;;
74259;SDS011;62630;55.874;37.516;2023-01-30T06:23:40;6.53;;;3.97;;
74259;SDS011;62630;55.874;37.516;2023-01-30T06:26:07;7.47;;;4.97;;
74259;SDS011;62630;55.874;37.516;2023-01-30T06:28:33;6.95;;;3.95;;
74259;SDS011;62630;55.874;37.516;2023-01-30T06:30:59;7.80;;;4.03;;
74259;SDS011;62630;55.874;37.516;2023-01-30T06:33:25;7.80;;;4.40;;
74259;SDS011;62630;55.874;37.516;2023-01-30T06:35:50;8.23;;;4.40;;
74259;SDS011;62630;55.874;37.516;2023-01-30T06:38:17;7.93;;;4.50;;
74259;SDS011;62630;55.874;37.516;2023-01-30T06:40:45;8.80;;;4.60;;
74259;SDS011;62630;55.874;37.516;2023-01-30T06:43:12;8.35;;;4.18;;
74259;SDS011;62630;55.874;37.516;2023-01-30T06:45:38;11.52;;;4.35;;
74259;SDS011;62630;55.874;37.516;2023-01-30T06:48:04;10.45;;;4.40;;
74259;SDS011;62630;55.874;37.516;2023-01-30T06:50:30;7.68;;;3.80;;
74259;SDS011;62630;55.874;37.516;2023-01-30T06:52:57;7.13;;;4.45;;
74259;SDS011;62630;55.874;37.516;2023-01-30T06:55:25;8.32;;;3.75;;
74259;SDS011;62630;55.874;37.516;2023-01-30T07:00:30;11.65;;;4.53;;
74259;SDS011;62630;55.874;37.516;2023-01-30T07:02:56;6.57;;;3.33;;
74259;SDS011;62630;55.874;37.516;2023-01-30T07:05:23;7.50;;;4.07;;
74259;SDS011;62630;55.874;37.516;2023-01-30T07:07:52;7.43;;;4.32;;
74259;SDS011;62630;55.874;37.516;2023-01-30T07:10:18;6.38;;;4.03;;
74259;SDS011;62630;55.874;37.516;2023-01-30T07:12:44;6.18;;;3.90;;
74259;SDS011;62630;55.874;37.516;2023-01-30T07:15:11;6.97;;;4.07;;
74259;SDS011;62630;55.874;37.516;2023-01-30T07:17:38;7.55;;;3.58;;
74259;SDS011;62630;55.874;37.516;2023-01-30T07:20:08;6.50;;;3.20;;
74259;SDS011;62630;55.874;37.516;2023-01-30T07:22:35;5.75;;;3.40;;
74259;SDS011;62630;55.874;37.516;2023-01-30T07:25:01;8.27;;;3.95;;
74259;SDS011;62630;55.874;37.516;2023-01-30T07:27:26;6.07;;;3.38;;
74259;SDS011;62630;55.874;37.516;2023-01-30T07:29:52;8.63;;;4.18;;
74259;SDS011;62630;55.874;37.516;2023-01-30T07:32:18;7.70;;;4.07;;
74259;SDS011;62630;55.874;37.516;2023-01-30T07:34:44;7.32;;;4.22;;
74259;SDS011;62630;55.874;37.516;2023-01-30T07:37:11;6.05;;;3.90;;
74259;SDS011;62630;55.874;37.516;2023-01-30T07:39:36;7.65;;;4.03;;
74259;SDS011;62630;55.874;37.516;2023-01-30T07:42:06;5.35;;;3.58;;
74259;SDS011;62630;55.874;37.516;2023-01-30T07:44:32;7.85;;;3.58;;
74259;SDS011;62630;55.874;37.516;2023-01-30T07:47:05;5.55;;;3.25;;
74259;SDS011;62630;55.874;37.516;2023-01-30T07:49:31;7.20;;;3.90;;
74259;SDS011;62630;55.874;37.516;2023-01-30T07:51:56;5.95;;;3.90;;
74259;SDS011;62630;55.874;37.516;2023-01-30T07:54:22;6.72;;;3.50;;
74259;SDS011;62630;55.874;37.516;2023-01-30T07:56:48;5.75;;;3.55;;
74259;SDS011;62630;55.874;37.516;2023-01-30T07:59:13;7.32;;;3.53;;
74259;SDS011;62630;55.874;37.516;2023-01-30T08:01:39;6.03;;;3.72;;
74259;SDS011;62630;55.874;37.516;2023-01-30T08:04:04;7.47;;;3.50;;
74259;SDS011;62630;55.874;37.516;2023-01-30T08:06:30;8.00;;;4.00;;
74259;SDS011;62630;55.874;37.516;2023-01-30T08:08:55;6.63;;;3.30;;
74259;SDS011;62630;55.874;37.516;2023-01-30T08:11:21;6.82;;;3.97;;
74259;SDS011;62630;55.874;37.516;2023-01-30T08:13:46;7.40;;;4.28;;
74259;SDS011;62630;55.874;37.516;2023-01-30T08:16:12;5.15;;;3.33;;
74259;SDS011;62630;55.874;37.516;2023-01-30T08:18:38;10.57;;;3.85;;
74259;SDS011;62630;55.874;37.516;2023-01-30T08:21:04;6.18;;;3.63;;
74259;SDS011;62630;55.874;37.516;2023-01-30T08:23:30;5.93;;;3.75;;
74259;SDS011;62630;55.874;37.516;2023-01-30T08:25:58;6.43;;;3.45;;
74259;SDS011;62630;55.874;37.516;2023-01-30T08:30:51;6.03;;;3.22;;
74259;SDS011;62630;55.874;37.516;2023-01-30T08:33:18;7.35;;;3.90;;
74259;SDS011;62630;55.874;37.516;2023-01-30T08:35:45;7.38;;;4.18;;
74259;SDS011;62630;55.874;37.516;2023-01-30T08:38:11;8.95;;;3.70;;
74259;SDS011;62630;55.874;37.516;2023-01-30T08:40:37;6.95;;;3.50;;
74259;SDS011;62630;55.874;37.516;2023-01-30T08:43:02;9.77;;;4.07;;
74259;SDS011;62630;55.874;37.516;2023-01-30T08:45:28;10.55;;;4.18;;
74259;SDS011;62630;55.874;37.516;2023-01-30T08:47:58;8.18;;;3.78;;
74259;SDS011;62630;55.874;37.516;2023-01-30T08:50:24;7.60;;;4.30;;
74259;SDS011;62630;55.874;37.516;2023-01-30T08:52:49;6.63;;;3.78;;
74259;SDS011;62630;55.874;37.516;2023-01-30T08:55:15;7.88;;;4.38;;
74259;SDS011;62630;55.874;37.516;2023-01-30T08:57:42;6.40;;;3.97;;
74259;SDS011;62630;55.874;37.516;2023-01-30T09:00:07;7.22;;;4.20;;
74259;SDS011;62630;55.874;37.516;2023-01-30T09:02:34;9.50;;;4.68;;
74259;SDS011;62630;55.874;37.516;2023-01-30T09:05:00;7.95;;;4.45;;
74259;SDS011;62630;55.874;37.516;2023-01-30T09:07:26;8.13;;;4.28;;
74259;SDS011;62630;55.874;37.516;2023-01-30T09:09:53;7.40;;;4.38;;
74259;SDS011;62630;55.874;37.516;2023-01-30T09:12:19;7.32;;;3.75;;
74259;SDS011;62630;55.874;37.516;2023-01-30T09:14:45;10.13;;;4.47;;
74259;SDS011;62630;55.874;37.516;2023-01-30T09:17:11;5.50;;;3.35;;
74259;SDS011;62630;55.874;37.516;2023-01-30T09:19:36;6.95;;;3.85;;
74259;SDS011;62630;55.874;37.516;2023-01-30T09:22:02;9.60;;;3.80;;
74259;SDS011;62630;55.874;37.516;2023-01-30T09:24:29;6.30;;;3.60;;
74259;SDS011;62630;55.874;37.516;2023-01-30T09:26:55;6.80;;;3.47;;
74259;SDS011;62630;55.874;37.516;2023-01-30T09:29:23;5.70;;;3.13;;
74259;SDS011;62630;55.874;37.516;2023-01-30T09:31:50;6.63;;;3.60;;
74259;SDS011;62630;55.874;37.516;2023-01-30T09:34:17;6.65;;;3.72;;
74259;SDS011;62630;55.874;37.516;2023-01-30T09:36:43;6.10;;;3.53;;
74259;SDS011;62630;55.874;37.516;2023-01-30T09:39:09;6.13;;;3.38;;
74259;SDS011;62630;55.874;37.516;2023-01-30T09:41:59;6.95;;;3.55;;
74259;SDS011;62630;55.874;37.516;2023-01-30T09:47:17;9.05;;;3.38;;
74259;SDS011;62630;55.874;37.516;2023-01-30T09:50:03;6.50;;;3.63;;
74259;SDS011;62630;55.874;37.516;2023-01-30T09:52:40;7.90;;;3.42;;
74259;SDS011;62630;55.874;37.516;2023-01-30T09:55:20;6.43;;;3.00;;
74259;SDS011;62630;55.874;37.516;2023-01-30T09:57:49;6.25;;;3.65;;
74259;SDS011;62630;55.874;37.516;2023-01-30T10:00:23;5.53;;;3.55;;
74259;SDS011;62630;55.874;37.516;2023-01-30T10:17:12;7.88;;;3.70;;
74259;SDS011;62630;55.874;37.516;2023-01-30T10:20:06;12.32;;;3.60;;
74259;SDS011;62630;55.874;37.516;2023-01-30T10:22:47;12.73;;;4.10;;
74259;SDS011;62630;55.874;37.516;2023-01-30T10:28:03;8.65;;;3.58;;
74259;SDS011;62630;55.874;37.516;2023-01-30T10:30:34;7.68;;;3.35;;
74259;SDS011;62630;55.874;37.516;2023-01-30T10:35:59;6.68;;;3.40;;
74259;SDS011;62630;55.874;37.516;2023-01-30T10:38:53;8.50;;;4.07;;
74259;SDS011;62630;55.874;37.516;2023-01-30T10:41:38;8.10;;;3.88;;
74259;SDS011;62630;55.874;37.516;2023-01-30T10:44:16;6.65;;;3.42;;
74259;SDS011;62630;55.874;37.516;2023-01-30T10:55:43;7.88;;;4.47;;
74259;SDS011;62630;55.874;37.516;2023-01-30T11:00:41;7.85;;;3.58;;
74259;SDS011;62630;55.874;37.516;2023-01-30T11:05:52;8.90;;;4.10;;
74259;SDS011;62630;55.874;37.516;2023-01-30T11:08:49;6.40;;;3.63;;
74259;SDS011;62630;55.874;37.516;2023-01-30T11:14:04;7.40;;;4.18;;
74259;SDS011;62630;55.874;37.516;2023-01-30T11:16:32;8.70;;;3.90;;
74259;SDS011;62630;55.874;37.516;2023-01-30T11:19:10;7.95;;;3.42;;
74259;SDS011;62630;55.874;37.516;2023-01-30T11:21:37;6.13;;;3.78;;
74259;SDS011;62630;55.874;37.516;2023-01-30T11:24:20;8.50;;;4.10;;
74259;SDS011;62630;55.874;37.516;2023-01-30T11:26:50;6.88;;;3.97;;
74259;SDS011;62630;55.874;37.516;2023-01-30T11:29:27;8.25;;;4.18;;
74259;SDS011;62630;55.874;37.516;2023-01-30T11:32:22;11.05;;;4.43;;
74259;SDS011;62630;55.874;37.516;2023-01-30T11:37:36;10.45;;;5.25;;
74259;SDS011;62630;55.874;37.516;2023-01-30T11:42:43;10.02;;;4.88;;
74259;SDS011;62630;55.874;37.516;2023-01-30T11:45:11;7.90;;;4.10;;
74259;SDS011;62630;55.874;37.516;2023-01-30T11:47:37;9.27;;;4.45;;
74259;SDS011;62630;55.874;37.516;2023-01-30T11:50:14;7.68;;;4.20;;
74259;SDS011;62630;55.874;37.516;2023-01-30T11:52:42;9.07;;;4.55;;
74259;SDS011;62630;55.874;37.516;2023-01-30T11:55:12;10.07;;;4.38;;
74259;SDS011;62630;55.874;37.516;2023-01-30T11:57:50;7.63;;;4.15;;
74259;SDS011;62630;55.874;37.516;2023-01-30T12:00:23;9.10;;;4.70;;
74259;SDS011;62630;55.874;37.516;2023-01-30T12:02:56;7.45;;;4.28;;
74259;SDS011;62630;55.874;37.516;2023-01-30T12:11:02;9.18;;;4.57;;
74259;SDS011;62630;55.874;37.516;2023-01-30T12:13:38;7.70;;;4.25;;
74259;SDS011;62630;55.874;37.516;2023-01-30T12:16:16;7.07;;;3.97;;
74259;SDS011;62630;55.874;37.516;2023-01-30T12:21:31;9.07;;;3.83;;
74259;SDS011;62630;55.874;37.516;2023-01-30T12:24:21;8.48;;;4.03;;
74259;SDS011;62630;55.874;37.516;2023-01-30T12:32:18;11.52;;;4.13;;
74259;SDS011;62630;55.874;37.516;2023-01-30T12:34:49;5.68;;;3.45;;
74259;SDS011;62630;55.874;37.516;2023-01-30T12:42:59;6.45;;;4.03;;
74259;SDS011;62630;55.874;37.516;2023-01-30T12:45:45;6.88;;;3.85;;
74259;SDS011;62630;55.874;37.516;2023-01-30T12:48:55;5.70;;;3.75;;
74259;SDS011;62630;55.874;37.516;2023-01-30T12:51:58;7.70;;;4.15;;
74259;SDS011;62630;55.874;37.516;2023-01-30T12:54:53;9.25;;;3.50;;
74259;SDS011;62630;55.874;37.516;2023-01-30T13:14:50;5.97;;;3.63;;
74259;SDS011;62630;55.874;37.516;2023-01-30T13:29:32;6.55;;;3.45;;
74259;SDS011;62630;55.874;37.516;2023-01-30T13:32:13;6.57;;;3.25;;
74259;SDS011;62630;55.874;37.516;2023-01-30T13:34:45;8.57;;;4.13;;
74259;SDS011;62630;55.874;37.516;2023-01-30T13:37:14;7.18;;;3.80;;
74259;SDS011;62630;55.874;37.516;2023-01-30T13:39:58;5.78;;;3.50;;
74259;SDS011;62630;55.874;37.516;2023-01-30T13:45:06;7.63;;;3.72;;
74259;SDS011;62630;55.874;37.516;2023-01-30T13:50:45;7.95;;;3.40;;
74259;SDS011;62630;55.874;37.516;2023-01-30T13:56:15;6.18;;;3.92;;
74259;SDS011;62630;55.874;37.516;2023-01-30T13:58:55;9.20;;;3.55;;
74259;SDS011;62630;55.874;37.516;2023-01-30T14:07:15;7.53;;;3.00;;
74259;SDS011;62630;55.874;37.516;2023-01-30T14:10:10;4.88;;;2.90;;
74259;SDS011;62630;55.874;37.516;2023-01-30T14:12:41;5.97;;;3.20;;
74259;SDS011;62630;55.874;37.516;2023-01-30T14:20:32;6.75;;;3.35;;
74259;SDS011;62630;55.874;37.516;2023-01-30T14:23:04;6.35;;;3.35;;
74259;SDS011;62630;55.874;37.516;2023-01-30T14:25:44;5.43;;;2.92;;
74259;SDS011;62630;55.874;37.516;2023-01-30T14:33:31;4.68;;;3.20;;
74259;SDS011;62630;55.874;37.516;2023-01-30T14:38:29;5.35;;;3.10;;
74259;SDS011;62630;55.874;37.516;2023-01-30T14:46:11;4.78;;;2.70;;
74259;SDS011;62630;55.874;37.516;2023-01-30T15:24:14;5.63;;;2.80;;
74259;SDS011;62630;55.874;37.516;2023-01-30T15:32:26;4.18;;;2.72;;
74259;SDS011;62630;55.874;37.516;2023-01-30T15:35:00;3.83;;;1.77;;
74259;SDS011;62630;55.874;37.516;2023-01-30T15:47:56;4.38;;;2.53;;
74259;SDS011;62630;55.874;37.516;2023-01-30T15:50:33;7.03;;;3.00;;
74259;SDS011;62630;55.874;37.516;2023-01-30T15:53:04;3.65;;;2.10;;
74259;SDS011;62630;55.874;37.516;2023-01-30T15:55:40;3.58;;;2.40;;
74259;SDS011;62630;55.874;37.516;2023-01-30T15:58:13;3.92;;;2.17;;
74259;SDS011;62630;55.874;37.516;2023-01-30T16:00:46;3.92;;;2.25;;
74259;SDS011;62630;55.874;37.516;2023-01-30T16:03:18;5.13;;;2.97;;
74259;SDS011;62630;55.874;37.516;2023-01-30T16:05:48;5.22;;;2.67;;
74259;SDS011;62630;55.874;37.516;2023-01-30T16:14:19;2.75;;;2.20;;
74259;SDS011;62630;55.874;37.516;2023-01-30T16:16:56;4.05;;;2.53;;
74259;SDS011;62630;55.874;37.516;2023-01-30T16:19:28;3.65;;;2.45;;
74259;SDS011;62630;55.874;37.516;2023-01-30T16:22:00;3.97;;;2.47;;
74259;SDS011;62630;55.874;37.516;2023-01-30T16:24:41;5.80;;;2.72;;
74259;SDS011;62630;55.874;37.516;2023-01-30T16:27:19;5.22;;;3.00;;
74259;SDS011;62630;55.874;37.516;2023-01-30T16:29:58;3.50;;;2.47;;
74259;SDS011;62630;55.874;37.516;2023-01-30T16:32:32;3.85;;;2.28;;
74259;SDS011;62630;55.874;37.516;2023-01-30T16:35:14;4.30;;;2.78;;
74259;SDS011;62630;55.874;37.516;2023-01-30T16:37:58;7.07;;;3.03;;
74259;SDS011;62630;55.874;37.516;2023-01-30T16:40:30;3.47;;;1.90;;
74259;SDS011;62630;55.874;37.516;2023-01-30T16:48:28;6.28;;;2.65;;
74259;SDS011;62630;55.874;37.516;2023-01-30T16:51:10;5.60;;;2.80;;
74259;SDS011;62630;55.874;37.516;2023-01-30T16:54:02;9.25;;;3.10;;
74259;SDS011;62630;55.874;37.516;2023-01-30T16:56:33;4.15;;;2.30;;
74259;SDS011;62630;55.874;37.516;2023-01-30T16:58:59;5.78;;;2.72;;
74259;SDS011;62630;55.874;37.516;2023-01-30T17:01:36;5.13;;;3.03;;
74259;SDS011;62630;55.874;37.516;2023-01-30T17:04:05;3.95;;;2.42;;
74259;SDS011;62630;55.874;37.516;2023-01-30T17:06:43;4.47;;;2.53;;
74259;SDS011;62630;55.874;37.516;2023-01-30T17:09:51;4.32;;;2.38;;
74259;SDS011;62630;55.874;37.516;2023-01-30T17:17:37;4.80;;;2.40;;
74259;SDS011;62630;55.874;37.516;2023-01-30T17:20:06;4.07;;;2.15;;
74259;SDS011;62630;55.874;37.516;2023-01-30T17:22:34;5.45;;;2.83;;
74259;SDS011;62630;55.874;37.516;2023-01-30T17:25:05;3.72;;;2.10;;
74259;SDS011;62630;55.874;37.516;2023-01-30T17:27:38;4.75;;;2.28;;
74259;SDS011;62630;55.874;37.516;2023-01-30T17:30:11;3.55;;;2.10;;
74259;SDS011;62630;55.874;37.516;2023-01-30T17:32:40;4.55;;;2.13;;
74259;SDS011;62630;55.874;37.516;2023-01-30T17:35:06;3.97;;;2.50;;
74259;SDS011;62630;55.874;37.516;2023-01-30T17:37:32;6.03;;;2.20;;
74259;SDS011;62630;55.874;37.516;2023-01-30T17:39:58;5.35;;;3.13;;
74259;SDS011;62630;55.874;37.516;2023-01-30T17:42:24;3.67;;;2.15;;
74259;SDS011;62630;55.874;37.516;2023-01-30T17:44:50;4.65;;;2.60;;
74259;SDS011;62630;55.874;37.516;2023-01-30T17:47:18;5.18;;;2.00;;
74259;SDS011;62630;55.874;37.516;2023-01-30T17:49:45;4.60;;;2.08;;
74259;SDS011;62630;55.874;37.516;2023-01-30T17:52:12;4.95;;;2.03;;
74259;SDS011;62630;55.874;37.516;2023-01-30T17:54:38;3.70;;;1.80;;
74259;SDS011;62630;55.874;37.516;2023-01-30T17:57:04;4.07;;;2.03;;
74259;SDS011;62630;55.874;37.516;2023-01-30T17:59:31;4.57;;;2.22;;
74259;SDS011;62630;55.874;37.516;2023-01-30T18:02:01;2.95;;;1.80;;
74259;SDS011;62630;55.874;37.516;2023-01-30T18:04:29;3.38;;;2.45;;
74259;SDS011;62630;55.874;37.516;2023-01-30T18:07:01;5.82;;;2.22;;
74259;SDS011;62630;55.874;37.516;2023-01-30T18:09:30;3.65;;;2.30;;
74259;SDS011;62630;55.874;37.516;2023-01-30T18:11:56;3.47;;;2.33;;
74259;SDS011;62630;55.874;37.516;2023-01-30T18:14:22;2.90;;;1.90;;
74259;SDS011;62630;55.874;37.516;2023-01-30T18:16:47;4.18;;;2.28;;
74259;SDS011;62630;55.874;37.516;2023-01-30T18:19:18;3.53;;;2.20;;
74259;SDS011;62630;55.874;37.516;2023-01-30T18:21:48;3.60;;;2.00;;
74259;SDS011;62630;55.874;37.516;2023-01-30T18:24:14;4.55;;;2.55;;
74259;SDS011;62630;55.874;37.516;2023-01-30T18:26:39;3.00;;;2.00;;
74259;SDS011;62630;55.874;37.516;2023-01-30T18:29:06;4.18;;;2.40;;
74259;SDS011;62630;55.874;37.516;2023-01-30T18:31:33;4.20;;;2.67;;
74259;SDS011;62630;55.874;37.516;2023-01-30T18:33:59;5.00;;;2.70;;
74259;SDS011;62630;55.874;37.516;2023-01-30T18:36:31;3.95;;;1.92;;
74259;SDS011;62630;55.874;37.516;2023-01-30T18:39:02;3.50;;;2.30;;
74259;SDS011;62630;55.874;37.516;2023-01-30T18:41:49;4.47;;;2.53;;
74259;SDS011;62630;55.874;37.516;2023-01-30T18:44:20;5.68;;;2.63;;
74259;SDS011;62630;55.874;37.516;2023-01-30T18:46:49;5.13;;;2.15;;
74259;SDS011;62630;55.874;37.516;2023-01-30T18:49:36;3.50;;;1.90;;
74259;SDS011;62630;55.874;37.516;2023-01-30T18:52:11;3.58;;;2.28;;